Airfield :
LOGIN :

Register | Disclaimer

   EN    FR    IT 

 










Legend :    VFR   Marginal VFR   IFR   Intensive IFR   Very Intensive IFR
Visi :
Ceiling :
>= 8 km
>= 3000ft
5 to 8 km
1000 to 3000 ft
1500m to 5 km
500 to 1000 ft
800 to 1500m
200 to 500 ft
< 800m
< 200 ft
Symbols :   Thunderstorms  Fog  Heavy snow  Heavy precipitations  Wind > 20 kt
SIGMETs :     Misc.  Thunderstorms  Icing  Turbulence  Mountain Waves  Volcanic Ashes







- Airport Elevation : 616 ft
- IATA code : PUF
- Download approach charts


LFBP - Pau

CURRENT METAR :
  • 212200Z AUTO VRB02KT 9999 OVC018 17/16 Q1015 NOSIG

EXPIRED METARs :
  • 212130Z AUTO 00000KT 9999 OVC017 17/16 Q1015 NOSIG
  • 212100Z AUTO 19001KT 9999 BKN019 BKN032 17/16 Q1015 NOSIG
  • 212030Z AUTO VRB03KT 9999 SCT020 BKN032 17/16 Q1015 NOSIG
  • 212000Z AUTO 16002KT 9999 OVC033 17/15 Q1015 NOSIG
  • 211930Z AUTO VRB02KT 9999 FEW010/// BKN032/// OVC038/// ///TCU 18/15 Q1014 BECMG SCT030

TAF AMD TAF LFBP
Valid from the 21 at 18:00 until the 22 at 18:00 UTC


211832Z 2118/2218 30005KT 9999 OVC018
PROB30
TEMPO 2118/2120 SHRA BKN014CB
BECMG 2120/2122 SCT030
BECMG 2200/2202 CAVOK
BECMG 2210/2212 BKN040
No reported NOTAMs for that airfield.



MET'MAP, your aeronautical weather chart ! - Copyright ORBIFLY December 2007 - Disclaimer

ORBIFLY MET'MAP TEAM :

Programming & Development : Alexandra Zaïnal
Concept & Development : Baudouin d'Aumeries
Co-Development & Prog : Marc-Olivier Méhu
Technical & hardware support : Manuel Goepfert

Contact : metmap@orbifly.com




SOURCES & CREDITS :

   NOAA